createdAt,value
2022-11-16T00:00:13.904Z,93281.47
2022-11-16T00:03:40.133Z,93284.66
2022-11-16T00:23:00.768Z,93270.91
2022-11-16T00:25:28.767Z,93270.13
2022-11-16T00:27:56.472Z,93265.34
2022-11-16T00:30:24.551Z,93256.81
2022-11-16T00:32:52.860Z,93266.16
2022-11-16T00:35:20.849Z,93262.38
2022-11-16T00:37:48.631Z,93264.84
2022-11-16T00:40:16.628Z,93261.31
2022-11-16T00:42:44.358Z,93267.34
2022-11-16T00:45:12.312Z,93258.16
2022-11-16T00:47:40.157Z,93258.06
2022-11-16T00:50:08.857Z,93261.28
2022-11-16T00:52:36.830Z,93256.94
2022-11-16T00:55:05.320Z,93256.34
2022-11-16T00:57:33.344Z,93253.34
2022-11-16T01:00:01.427Z,93246.66
2022-11-16T01:02:30.729Z,93246.25
2022-11-16T01:05:00.198Z,93241.25
2022-11-16T01:15:38.510Z,93229.38
2022-11-16T01:26:47.348Z,93223.75
2022-11-16T01:30:14.841Z,93213.88
2022-11-16T01:32:48.748Z,93205.53
2022-11-16T01:35:19.291Z,93214.53
2022-11-16T01:37:48.450Z,93207.53
2022-11-16T01:40:16.769Z,93206.75
2022-11-16T01:42:45.854Z,93205.59
2022-11-16T01:56:27.098Z,93192.91
2022-11-16T01:59:07.156Z,93193.91
2022-11-16T02:01:35.190Z,93198.88
2022-11-16T02:04:04.390Z,93191.41
2022-11-16T02:07:01.717Z,93209.91
2022-11-16T02:10:02.910Z,93206.28
2022-11-16T02:12:39.901Z,93196.50
2022-11-16T02:15:22.157Z,93187.09
2022-11-16T02:18:38.557Z,93189.94
2022-11-16T02:21:29.047Z,93183.66
2022-11-16T02:34:50.527Z,93166.63
2022-11-16T02:37:23.112Z,93175.19
2022-11-16T02:39:58.313Z,93167.25
2022-11-16T02:42:35.950Z,93162.56
2022-11-16T02:45:08.280Z,93172.94
2022-11-16T02:47:38.666Z,93166.63
2022-11-16T02:50:12.712Z,93152.94
2022-11-16T02:52:40.561Z,93148.72
2022-11-16T02:55:11.678Z,93143.19
2022-11-16T02:57:54.290Z,93144.59
2022-11-16T03:02:10.503Z,93143.91
2022-11-16T03:04:48.839Z,93147.72
2022-11-16T03:07:23.171Z,93149.25
2022-11-16T03:10:34.870Z,93145.34
2022-11-16T03:18:04.606Z,93141.34
2022-11-16T03:21:27.661Z,93136.88
2022-11-16T03:23:56.054Z,93132.16
2022-11-16T03:26:30.690Z,93127.31
2022-11-16T03:29:14.481Z,93125.84
2022-11-16T03:31:57.398Z,93114.56
2022-11-16T03:34:31.912Z,93127.44
2022-11-16T03:37:00.879Z,93125.59
2022-11-16T03:39:37.918Z,93117.06
2022-11-16T03:55:00.934Z,93104.91
2022-11-16T04:02:23.180Z,93104.81
2022-11-16T04:05:52.098Z,93103.19
2022-11-16T04:08:38.552Z,93102.41
2022-11-16T04:11:30.941Z,93088.72
2022-11-16T04:14:17.675Z,93094.94
2022-11-16T04:17:04.224Z,93102.41
2022-11-16T04:19:57.788Z,93101.47
2022-11-16T04:22:53.394Z,93092.53
2022-11-16T04:25:27.552Z,93094.13
2022-11-16T04:28:13.683Z,93089.41
2022-11-16T04:31:13.133Z,93092.28
2022-11-16T04:34:04.980Z,93092.50
2022-11-16T04:36:51.796Z,93091.00
2022-11-16T04:39:19.852Z,93088.69
2022-11-16T04:42:06.503Z,93085.25
2022-11-16T04:44:55.238Z,93087.09
2022-11-16T04:47:26.733Z,93089.63
2022-11-16T04:49:54.728Z,93089.19
2022-11-16T04:52:24.747Z,93089.53
2022-11-16T04:54:54.772Z,93077.56
2022-11-16T04:57:23.789Z,93074.13
2022-11-16T04:59:52.374Z,93088.38
2022-11-16T05:02:20.836Z,93074.94
2022-11-16T05:04:53.121Z,93078.00
2022-11-16T05:07:22.459Z,93075.56
2022-11-16T05:09:52.034Z,93083.63
2022-11-16T05:12:22.782Z,93069.41
2022-11-16T05:14:55.509Z,93077.44
2022-11-16T05:17:27.973Z,93078.47
2022-11-16T05:20:16.245Z,93075.03
2022-11-16T05:22:57.831Z,93072.28
2022-11-16T05:25:34.013Z,93079.66
2022-11-16T05:28:06.074Z,93076.09
2022-11-16T05:30:38.077Z,93072.84
2022-11-16T05:33:06.255Z,93077.81
2022-11-16T05:35:38.783Z,93066.66
2022-11-16T05:38:07.398Z,93067.09
2022-11-16T05:40:40.355Z,93069.66
2022-11-16T05:43:08.679Z,93075.16
2022-11-16T05:45:43.578Z,93066.44
2022-11-16T05:48:13.737Z,93060.53
2022-11-16T05:50:43.145Z,93063.66
2022-11-16T05:53:22.140Z,93069.50
2022-11-16T05:55:50.288Z,93070.78
2022-11-16T05:58:19.945Z,93069.63
2022-11-16T06:00:51.248Z,93080.31
2022-11-16T06:03:20.648Z,93069.72
2022-11-16T06:05:48.687Z,93068.97
2022-11-16T06:08:18.710Z,93063.22
2022-11-16T06:10:47.262Z,93077.13
2022-11-16T06:13:16.023Z,93061.44
2022-11-16T06:18:26.858Z,93068.00
2022-11-16T06:20:54.925Z,93071.19
2022-11-16T06:23:23.533Z,93071.94
2022-11-16T06:25:55.269Z,93079.16
2022-11-16T06:28:26.150Z,93068.13
2022-11-16T06:30:55.557Z,93072.19
2022-11-16T06:33:27.645Z,93073.19
2022-11-16T06:35:59.358Z,93063.44
2022-11-16T06:38:27.850Z,93071.78
2022-11-16T06:40:58.945Z,93075.16
2022-11-16T06:43:29.211Z,93073.56
2022-11-16T06:46:00.985Z,93067.91
2022-11-16T06:48:30.662Z,93059.06
2022-11-16T06:50:59.011Z,93073.69
2022-11-16T06:53:29.462Z,93071.47
2022-11-16T06:56:05.903Z,93056.41
2022-11-16T06:58:41.683Z,93059.66
2022-11-16T07:01:12.776Z,93068.59
2022-11-16T07:03:43.244Z,93070.75
2022-11-16T07:06:13.979Z,93075.03
2022-11-16T07:08:45.230Z,93064.75
2022-11-16T07:11:15.780Z,93063.41
2022-11-16T07:13:44.313Z,93064.38
2022-11-16T07:16:12.798Z,93060.75
2022-11-16T07:18:46.572Z,93049.16
2022-11-16T07:21:17.110Z,93049.72
2022-11-16T07:23:46.095Z,93051.50
2022-11-16T07:26:19.419Z,93037.81
2022-11-16T07:28:53.317Z,93046.72
2022-11-16T07:31:24.110Z,93033.91
2022-11-16T07:34:12.062Z,93036.09
2022-11-16T07:37:03.258Z,93045.22
2022-11-16T07:39:31.374Z,93042.13
2022-11-16T07:41:59.693Z,93033.50
2022-11-16T07:44:40.661Z,93020.50
2022-11-16T07:47:11.410Z,93021.63
2022-11-16T07:49:39.437Z,93033.09
2022-11-16T07:52:19.485Z,93025.00
2022-11-16T07:54:55.532Z,93011.91
2022-11-16T07:57:26.233Z,93013.16
2022-11-16T07:59:56.463Z,93016.09
2022-11-16T08:02:24.576Z,93012.47
2022-11-16T08:04:53.627Z,93005.44
2022-11-16T08:07:26.194Z,93002.97
2022-11-16T08:09:57.082Z,93006.22
2022-11-16T08:12:25.133Z,93006.28
2022-11-16T08:14:54.494Z,93003.16
2022-11-16T08:17:22.423Z,93003.22
2022-11-16T08:19:50.663Z,93001.84
2022-11-16T08:22:19.673Z,92988.00
2022-11-16T08:24:48.171Z,92997.38
2022-11-16T08:27:17.749Z,93001.50
2022-11-16T08:29:50.805Z,92987.75
2022-11-16T08:32:19.003Z,92978.22
2022-11-16T08:34:46.940Z,92986.63
2022-11-16T08:37:15.039Z,92980.19
2022-11-16T08:39:45.455Z,92971.50
2022-11-16T08:42:13.402Z,92968.91
2022-11-16T08:44:45.414Z,92973.25
2022-11-16T08:47:15.779Z,92968.84
2022-11-16T08:52:34.307Z,92959.84
2022-11-16T08:55:03.596Z,92951.97
2022-11-16T08:57:31.599Z,92954.66
2022-11-16T09:00:02.735Z,92961.38
2022-11-16T09:02:30.667Z,92957.78
2022-11-16T09:04:58.657Z,92958.66
2022-11-16T09:07:26.611Z,92955.44
2022-11-16T09:09:54.564Z,92948.59
2022-11-16T09:12:22.806Z,92950.19
2022-11-16T09:14:51.306Z,92947.22
2022-11-16T09:17:23.066Z,92942.56
2022-11-16T09:19:51.283Z,92933.09
2022-11-16T09:22:19.483Z,92925.19
2022-11-16T09:24:47.746Z,92932.00
2022-11-16T09:27:16.729Z,92912.84
2022-11-16T09:29:44.764Z,92903.13
2022-11-16T09:32:12.727Z,92898.50
2022-11-16T09:34:40.649Z,92893.66
2022-11-16T09:37:09.166Z,92890.72
2022-11-16T09:42:38.274Z,92876.38
2022-11-16T09:45:15.726Z,92877.09
2022-11-16T09:47:56.639Z,92860.81
2022-11-16T09:50:27.362Z,92860.66
2022-11-16T09:55:52.925Z,92841.28
2022-11-16T09:58:31.529Z,92829.69
2022-11-16T10:01:06.555Z,92815.63
2022-11-16T10:03:41.634Z,92814.47
2022-11-16T10:06:22.938Z,92812.59
2022-11-16T10:08:53.806Z,92811.09
2022-11-16T10:11:47.568Z,92803.19
2022-11-16T10:14:40.541Z,92791.34
2022-11-16T10:17:49.552Z,92777.59
2022-11-16T10:20:45.274Z,92785.78
2022-11-16T10:23:34.682Z,92779.88
2022-11-16T10:26:25.529Z,92776.31
2022-11-16T10:29:14.547Z,92785.28
2022-11-16T10:32:09.724Z,92781.47
2022-11-16T10:34:53.894Z,92767.69
2022-11-16T10:37:24.728Z,92753.78
2022-11-16T10:39:55.876Z,92763.94
2022-11-16T10:42:32.990Z,92751.47
2022-11-16T10:45:36.565Z,92752.84
2022-11-16T10:48:13.337Z,92755.78
2022-11-16T10:50:46.658Z,92756.84
2022-11-16T10:53:25.345Z,92748.38
2022-11-16T10:56:20.301Z,92751.44
2022-11-16T10:58:56.085Z,92750.09
2022-11-16T11:01:36.720Z,92738.69
2022-11-16T11:04:26.928Z,92740.44
2022-11-16T11:07:16.668Z,92750.84
2022-11-16T11:09:54.275Z,92744.63
2022-11-16T11:12:39.429Z,92739.59
2022-11-16T11:15:27.151Z,92736.41
2022-11-16T11:18:13.981Z,92742.34
2022-11-16T11:20:45.718Z,92736.19
2022-11-16T11:23:18.654Z,92726.47
2022-11-16T11:26:05.502Z,92721.75
2022-11-16T11:28:38.969Z,92732.59
2022-11-16T11:31:16.590Z,92726.44
2022-11-16T11:33:57.622Z,92720.16
2022-11-16T11:36:33.140Z,92714.84
2022-11-16T11:42:15.274Z,92714.69
2022-11-16T11:44:54.675Z,92705.53
2022-11-16T11:48:02.978Z,92706.88
2022-11-16T11:53:52.139Z,92702.31
2022-11-16T11:56:20.202Z,92714.56
2022-11-16T11:58:49.052Z,92701.09
2022-11-16T12:01:38.231Z,92696.19
2022-11-16T12:04:06.340Z,92687.59
2022-11-16T12:06:56.482Z,92686.91
2022-11-16T12:09:52.555Z,92681.50
2022-11-16T12:12:32.535Z,92690.00
2022-11-16T12:15:09.299Z,92687.53
2022-11-16T12:17:53.801Z,92683.09
2022-11-16T12:20:24.706Z,92682.41
2022-11-16T12:23:07.553Z,92682.91
2022-11-16T12:25:59.872Z,92689.34
2022-11-16T12:28:33.293Z,92687.34
2022-11-16T12:31:44.641Z,92693.22
2022-11-16T12:34:36.701Z,92676.81
2022-11-16T12:37:46.906Z,92674.47
2022-11-16T12:40:36.026Z,92671.47
2022-11-16T12:43:14.414Z,92661.75
2022-11-16T12:46:14.957Z,92648.94
2022-11-16T12:49:27.559Z,92660.69
2022-11-16T12:52:07.198Z,92655.34
2022-11-16T12:55:04.246Z,92645.31
2022-11-16T12:57:59.651Z,92646.19
2022-11-16T13:00:31.755Z,92640.00
2022-11-16T13:03:28.360Z,92628.66
2022-11-16T13:06:10.906Z,92629.09
2022-11-16T13:08:45.092Z,92629.09
2022-11-16T13:11:28.162Z,92633.28
2022-11-16T13:14:01.166Z,92629.66
2022-11-16T13:16:29.619Z,92622.38
2022-11-16T13:18:59.301Z,92631.16
2022-11-16T13:21:49.887Z,92630.25
2022-11-16T13:24:47.413Z,92615.94
2022-11-16T13:27:25.055Z,92617.56
2022-11-16T13:30:04.722Z,92625.88
2022-11-16T13:32:32.917Z,92612.19
2022-11-16T13:35:03.887Z,92616.03
2022-11-16T13:37:34.566Z,92613.59
2022-11-16T13:40:02.638Z,92613.72
2022-11-16T13:42:44.124Z,92613.88
2022-11-16T13:45:21.264Z,92613.91
2022-11-16T13:47:55.009Z,92611.84
2022-11-16T13:50:38.123Z,92624.63
2022-11-16T13:56:10.273Z,92624.97
2022-11-16T13:58:46.157Z,92619.69
2022-11-16T14:01:15.417Z,92614.41
2022-11-16T14:03:46.121Z,92623.75
2022-11-16T14:06:13.987Z,92621.06
2022-11-16T14:08:49.262Z,92612.09
2022-11-16T14:11:46.637Z,92614.50
2022-11-16T14:14:58.266Z,92599.50
2022-11-16T14:17:49.896Z,92591.00
2022-11-16T14:20:35.547Z,92598.28
2022-11-16T14:23:24.606Z,92603.16
2022-11-16T14:26:27.704Z,92605.22
2022-11-16T14:29:23.665Z,92590.56
2022-11-16T14:31:58.078Z,92588.50
2022-11-16T14:34:41.407Z,92592.25
2022-11-16T14:37:29.228Z,92594.97
2022-11-16T14:40:08.885Z,92589.38
2022-11-16T14:43:21.750Z,92590.50
2022-11-16T14:45:57.113Z,92583.78
2022-11-16T14:48:26.430Z,92586.97
2022-11-16T14:51:42.849Z,92586.97
2022-11-16T14:54:38.422Z,92594.81
2022-11-16T14:57:12.960Z,92586.44
2022-11-16T14:59:40.833Z,92588.88
2022-11-16T15:02:22.714Z,92596.44
2022-11-16T15:04:53.189Z,92598.91
2022-11-16T15:07:26.452Z,92588.47
2022-11-16T15:09:58.972Z,92601.25
2022-11-16T15:12:42.730Z,92591.44
2022-11-16T15:15:11.086Z,92589.28
2022-11-16T15:17:41.383Z,92579.91
2022-11-16T15:20:20.092Z,92588.00
2022-11-16T15:22:52.275Z,92584.84
2022-11-16T15:25:43.225Z,92587.25
2022-11-16T15:28:23.719Z,92582.97
2022-11-16T15:30:59.473Z,92578.47
2022-11-16T15:33:50.637Z,92579.00
2022-11-16T15:36:23.381Z,92578.28
2022-11-16T15:38:56.156Z,92583.53
2022-11-16T15:41:28.221Z,92581.66
2022-11-16T15:44:16.801Z,92564.34
2022-11-16T15:46:49.272Z,92580.91
2022-11-16T15:49:31.870Z,92582.91
2022-11-16T15:52:00.841Z,92580.94
2022-11-16T15:54:51.629Z,92582.53
2022-11-16T15:57:21.338Z,92587.38
2022-11-16T15:59:54.878Z,92583.13
2022-11-16T16:02:27.856Z,92592.16
2022-11-16T16:04:56.891Z,92580.38
2022-11-16T16:07:42.776Z,92591.88
2022-11-16T16:10:19.683Z,92585.56
2022-11-16T16:12:58.405Z,92578.53
2022-11-16T16:15:30.152Z,92591.88
2022-11-16T16:17:59.224Z,92584.16
2022-11-16T16:20:30.917Z,92585.28
2022-11-16T16:23:20.623Z,92599.09
2022-11-16T16:25:50.733Z,92584.22
2022-11-16T16:28:19.252Z,92583.75
2022-11-16T16:30:51.455Z,92593.06
2022-11-16T16:33:22.362Z,92588.50
2022-11-16T16:35:51.379Z,92585.63
2022-11-16T16:38:19.831Z,92595.91
2022-11-16T16:40:47.881Z,92591.63
2022-11-16T16:43:16.093Z,92574.03
2022-11-16T16:45:44.133Z,92583.31
2022-11-16T16:48:12.861Z,92578.22
2022-11-16T16:50:40.616Z,92585.66
2022-11-16T16:53:12.967Z,92588.91
2022-11-16T16:55:43.009Z,92589.94
2022-11-16T16:58:12.980Z,92595.50
2022-11-16T17:00:42.070Z,92598.69
2022-11-16T17:03:09.942Z,92590.59
2022-11-16T17:05:38.411Z,92604.75
2022-11-16T17:08:06.770Z,92596.44
2022-11-16T17:10:37.171Z,92604.69
2022-11-16T17:13:05.561Z,92581.53
2022-11-16T17:15:33.770Z,92585.16
2022-11-16T17:18:01.949Z,92584.88
2022-11-16T17:20:30.179Z,92588.91
2022-11-16T17:22:58.386Z,92586.41
2022-11-16T17:25:26.687Z,92592.47
2022-11-16T17:27:55.561Z,92573.59
2022-11-16T17:30:23.446Z,92581.72
2022-11-16T17:32:51.780Z,92591.41
2022-11-16T17:35:20.433Z,92583.63
2022-11-16T17:37:48.984Z,92576.66
2022-11-16T17:40:17.534Z,92580.75
2022-11-16T17:42:45.982Z,92586.19
2022-11-16T17:45:14.443Z,92589.31
2022-11-16T17:47:42.916Z,92582.09
2022-11-16T17:50:11.802Z,92586.38
2022-11-16T17:52:40.285Z,92584.47
2022-11-16T17:55:09.301Z,92578.03
2022-11-16T17:57:37.797Z,92582.06
2022-11-16T18:00:07.890Z,92570.66
2022-11-16T18:02:35.973Z,92576.38
2022-11-16T18:05:04.846Z,92582.63
2022-11-16T18:07:33.791Z,92572.69
2022-11-16T18:10:02.019Z,92571.59
2022-11-16T18:12:30.586Z,92575.88
2022-11-16T18:15:26.387Z,92577.56
2022-11-16T18:17:47.987Z,92572.47
2022-11-16T18:20:16.545Z,92566.63
2022-11-16T18:22:45.553Z,92568.47
2022-11-16T18:25:13.666Z,92573.78
2022-11-16T18:27:42.064Z,92561.25
2022-11-16T18:30:11.155Z,92564.44
2022-11-16T18:32:40.010Z,92570.44
2022-11-16T18:35:10.419Z,92544.59
2022-11-16T18:37:38.871Z,92558.63
2022-11-16T18:40:08.601Z,92546.38
2022-11-16T18:42:37.236Z,92557.84
2022-11-16T18:45:06.334Z,92553.00
2022-11-16T18:47:34.997Z,92545.78
2022-11-16T18:50:03.455Z,92541.75
2022-11-16T18:52:31.718Z,92546.16
2022-11-16T18:55:00.480Z,92539.72
2022-11-16T18:57:28.803Z,92548.50
2022-11-16T18:59:58.627Z,92537.25
2022-11-16T19:02:27.048Z,92527.38
2022-11-16T19:04:55.884Z,92535.63
2022-11-16T19:07:24.304Z,92529.56
2022-11-16T19:09:52.860Z,92541.84
2022-11-16T19:12:21.462Z,92539.97
2022-11-16T19:14:49.723Z,92546.84
2022-11-16T19:17:19.606Z,92543.91
2022-11-16T19:19:48.294Z,92542.00
2022-11-16T19:22:16.749Z,92545.47
2022-11-16T19:24:45.152Z,92535.88
2022-11-16T19:27:13.737Z,92533.84
2022-11-16T19:29:41.970Z,92530.72
2022-11-16T19:32:10.730Z,92533.03
2022-11-16T19:34:39.078Z,92536.56
2022-11-16T19:37:07.608Z,92536.47
2022-11-16T19:39:36.115Z,92530.09
2022-11-16T19:42:04.928Z,92544.00
2022-11-16T19:44:33.362Z,92537.31
2022-11-16T19:47:01.745Z,92543.47
2022-11-16T19:49:30.334Z,92543.44
2022-11-16T19:51:59.859Z,92539.50
2022-11-16T19:54:28.444Z,92528.78
2022-11-16T19:56:56.967Z,92528.31
2022-11-16T19:59:25.670Z,92535.72
2022-11-16T20:01:54.058Z,92500.09
2022-11-16T20:04:22.496Z,92531.66
2022-11-16T20:06:51.022Z,92534.59
2022-11-16T20:09:19.926Z,92531.72
2022-11-16T20:11:48.278Z,92529.78
2022-11-16T20:14:16.937Z,92528.78
2022-11-16T20:16:47.625Z,92519.47
2022-11-16T20:19:17.643Z,92519.00
2022-11-16T20:21:46.070Z,92520.53
2022-11-16T20:24:16.476Z,92521.53
2022-11-16T20:26:48.236Z,92518.31
2022-11-16T20:29:18.646Z,92524.72
2022-11-16T20:31:47.378Z,92518.59
2022-11-16T20:34:17.519Z,92511.69
2022-11-16T20:36:47.582Z,92505.91
2022-11-16T20:39:18.461Z,92494.19
2022-11-16T20:41:48.326Z,92486.94
2022-11-16T20:44:19.947Z,92486.00
2022-11-16T20:46:49.353Z,92480.44
2022-11-16T20:49:17.843Z,92473.25
2022-11-16T20:51:48.051Z,92472.19
2022-11-16T20:54:16.430Z,92471.88
2022-11-16T20:56:45.124Z,92475.00
2022-11-16T20:59:13.536Z,92482.69
2022-11-16T21:01:47.877Z,92475.53
2022-11-16T21:04:16.637Z,92473.09
2022-11-16T21:06:45.213Z,92472.56
2022-11-16T21:09:22.899Z,92471.25
2022-11-16T21:12:09.646Z,92465.88
2022-11-16T21:14:38.422Z,92468.00
2022-11-16T21:17:06.736Z,92460.84
2022-11-16T21:19:35.214Z,92470.06
2022-11-16T21:22:03.090Z,92470.69
2022-11-16T21:24:32.634Z,92484.53
2022-11-16T21:27:00.994Z,92481.88
2022-11-16T21:29:28.925Z,92478.44
2022-11-16T21:31:57.125Z,92479.25
2022-11-16T21:34:28.095Z,92481.41
2022-11-16T21:36:56.085Z,92469.38
2022-11-16T21:39:24.004Z,92461.63
2022-11-16T21:41:52.018Z,92454.16
2022-11-16T21:44:20.075Z,92448.00
2022-11-16T21:46:48.228Z,92454.41
2022-11-16T21:49:16.229Z,92455.44
2022-11-16T21:51:44.135Z,92456.25
2022-11-16T21:54:12.191Z,92457.00
2022-11-16T21:56:40.074Z,92445.75
2022-11-16T21:59:07.999Z,92452.97
2022-11-16T22:01:55.971Z,92443.09
2022-11-16T22:04:42.628Z,92461.78
2022-11-16T22:07:33.142Z,92432.03
2022-11-16T22:10:02.816Z,92445.84
2022-11-16T22:12:30.773Z,92433.28
2022-11-16T22:14:58.947Z,92440.94
2022-11-16T22:17:27.688Z,92423.44
2022-11-16T22:19:55.768Z,92425.22
2022-11-16T22:22:23.881Z,92441.19
2022-11-16T22:24:51.895Z,92428.63
2022-11-16T22:27:19.962Z,92439.06
2022-11-16T22:29:47.866Z,92430.81
2022-11-16T22:32:15.784Z,92435.38
2022-11-16T22:34:43.887Z,92429.50
2022-11-16T22:37:11.962Z,92435.00
2022-11-16T22:39:39.809Z,92443.81
2022-11-16T22:42:07.858Z,92428.56
2022-11-16T22:44:37.713Z,92420.53
2022-11-16T22:47:05.737Z,92407.53
2022-11-16T22:49:33.544Z,92411.97
2022-11-16T22:52:01.453Z,92407.41
2022-11-16T22:54:31.065Z,92406.38
2022-11-16T22:56:58.883Z,92400.59
2022-11-16T22:59:26.718Z,92398.22
2022-11-16T23:01:54.855Z,92405.47
2022-11-16T23:04:22.696Z,92403.28
2022-11-16T23:06:50.624Z,92402.25
2022-11-16T23:09:18.596Z,92386.72
2022-11-16T23:12:04.739Z,92400.88
2022-11-16T23:14:51.075Z,92402.22
2022-11-16T23:17:18.938Z,92383.53
2022-11-16T23:20:05.143Z,92399.50
2022-11-16T23:22:51.385Z,92383.16
2022-11-16T23:25:37.763Z,92394.63
2022-11-16T23:28:08.113Z,92376.44
2022-11-16T23:30:36.734Z,92392.06
2022-11-16T23:33:04.580Z,92365.09
2022-11-16T23:35:32.807Z,92382.41
2022-11-16T23:38:03.426Z,92360.53
2022-11-16T23:40:36.047Z,92361.16
2022-11-16T23:43:22.898Z,92356.66
2022-11-16T23:45:51.208Z,92350.69
2022-11-16T23:48:19.509Z,92356.47
2022-11-16T23:50:47.411Z,92353.09
2022-11-16T23:53:15.227Z,92362.38
2022-11-16T23:55:43.078Z,92360.75
2022-11-16T23:58:14.002Z,92371.16
